createdAt,value
2023-02-06T06:20:46.744Z,25.00
2023-02-06T06:21:47.710Z,25.00
2023-02-06T06:22:47.661Z,25.00
2023-02-06T06:23:47.654Z,25.00
2023-02-06T06:24:47.648Z,25.00
2023-02-06T06:25:47.633Z,0.00
2023-02-06T06:26:47.652Z,0.00
2023-02-06T06:27:47.659Z,0.00
2023-02-06T06:28:47.792Z,0.00
2023-02-06T06:29:47.605Z,0.00
2023-02-06T06:30:47.610Z,0.00
2023-02-06T06:31:47.735Z,0.00
2023-02-06T06:32:47.568Z,0.00
2023-02-06T06:33:47.560Z,0.00
2023-02-06T06:34:47.555Z,0.00
2023-02-06T06:35:47.546Z,0.00
2023-02-06T06:36:47.566Z,0.00
2023-02-06T06:37:47.542Z,0.00
2023-02-06T06:38:47.527Z,0.00
2023-02-06T06:39:47.515Z,0.00
2023-02-06T06:40:47.495Z,0.00
2023-02-06T06:41:47.715Z,0.00
2023-02-06T06:42:47.509Z,0.00
2023-02-06T06:43:49.070Z,0.00
2023-02-06T06:44:47.465Z,0.00
2023-02-06T06:45:47.490Z,0.00
2023-02-06T06:46:47.729Z,0.00
2023-02-06T06:47:47.729Z,0.00
2023-02-06T06:48:47.427Z,0.00
2023-02-06T06:49:47.415Z,0.00
2023-02-06T06:50:47.407Z,0.00
2023-02-06T06:51:47.406Z,0.00
2023-02-06T06:52:47.782Z,0.00
2023-02-06T06:53:47.381Z,0.00
2023-02-06T06:54:47.386Z,0.00
2023-02-06T06:55:47.371Z,0.00
2023-02-06T06:56:47.733Z,0.00
2023-02-06T06:57:47.341Z,0.00
2023-02-06T06:58:47.332Z,0.00
2023-02-06T06:59:47.329Z,0.00
2023-02-06T07:00:47.360Z,0.00
2023-02-06T07:01:47.730Z,0.00
2023-02-06T07:02:47.341Z,0.00
2023-02-06T07:03:47.291Z,0.00
2023-02-06T07:04:47.288Z,0.00
2023-02-06T07:05:47.270Z,0.00
2023-02-06T07:06:47.739Z,0.00
2023-02-06T07:07:47.728Z,0.00
2023-02-06T07:08:47.344Z,0.00
2023-02-06T07:09:47.727Z,0.00
2023-02-06T07:10:47.229Z,0.00
2023-02-06T07:11:47.233Z,0.00
2023-02-06T07:12:47.225Z,0.00
2023-02-06T07:13:47.198Z,0.00
2023-02-06T07:14:47.239Z,0.00
2023-02-06T07:15:47.182Z,0.00
2023-02-06T07:16:47.216Z,0.00
2023-02-06T07:17:47.366Z,0.00
2023-02-06T07:18:47.232Z,0.00
2023-02-06T07:19:47.146Z,0.00
2023-02-06T07:20:47.163Z,0.00
2023-02-06T07:21:47.388Z,0.00
2023-02-06T07:22:47.115Z,0.00
2023-02-06T07:23:47.235Z,0.00
2023-02-06T07:24:47.225Z,0.00
2023-02-06T07:25:47.090Z,0.00
2023-02-06T07:26:47.080Z,0.00
2023-02-06T07:27:47.267Z,0.00
2023-02-06T07:28:47.121Z,0.00
2023-02-06T07:29:47.052Z,0.00
2023-02-06T07:30:47.105Z,0.00
2023-02-06T07:31:47.616Z,13.31
2023-02-06T07:32:47.263Z,25.48
2023-02-06T07:33:47.029Z,24.96
2023-02-06T07:34:47.006Z,25.00
2023-02-06T07:35:47.020Z,25.90
2023-02-06T07:36:46.989Z,25.04
2023-02-06T07:37:47.242Z,25.86
2023-02-06T07:38:46.976Z,25.24
2023-02-06T07:39:46.961Z,26.99
2023-02-06T07:40:47.026Z,26.49
2023-02-06T07:41:46.947Z,26.33
2023-02-06T07:42:47.236Z,27.01
2023-02-06T07:43:47.128Z,25.09
2023-02-06T07:44:46.929Z,26.74
2023-02-06T07:45:46.969Z,25.00
2023-02-06T07:46:46.988Z,25.00
2023-02-06T07:47:47.314Z,29.32
2023-02-06T07:48:46.883Z,28.32
2023-02-06T07:49:46.901Z,25.04
2023-02-06T07:50:47.124Z,25.00
2023-02-06T07:51:47.311Z,27.39
2023-02-06T07:52:47.482Z,28.35
2023-02-06T07:53:46.948Z,27.56
2023-02-06T07:54:46.906Z,25.99
2023-02-06T07:55:47.003Z,28.13
2023-02-06T07:56:46.977Z,25.17
2023-02-06T07:57:47.507Z,25.02
2023-02-06T07:58:46.913Z,27.53
2023-02-06T07:59:46.945Z,27.34
2023-02-06T08:00:47.278Z,28.14
2023-02-06T08:01:47.273Z,25.00
2023-02-06T08:02:47.010Z,26.27
2023-02-06T08:03:46.795Z,27.47
2023-02-06T08:04:46.787Z,25.68
2023-02-06T08:05:46.730Z,26.00
2023-02-06T08:06:47.053Z,30.18
2023-02-06T08:07:46.901Z,29.48
2023-02-06T08:08:46.897Z,25.95
2023-02-06T08:09:46.856Z,28.39
2023-02-06T08:10:46.885Z,25.39
2023-02-06T08:11:46.836Z,25.66
2023-02-06T08:12:46.976Z,27.87
2023-02-06T08:13:47.003Z,28.23
2023-02-06T08:14:47.018Z,26.43
2023-02-06T08:15:46.634Z,26.15
2023-02-06T08:16:46.952Z,25.64
2023-02-06T08:17:47.319Z,26.68
2023-02-06T08:18:47.133Z,25.99
2023-02-06T08:19:47.160Z,28.23
2023-02-06T08:20:46.776Z,28.45
2023-02-06T08:21:46.753Z,27.26
2023-02-06T08:22:46.584Z,28.90
2023-02-06T08:23:46.766Z,27.85
2023-02-06T08:24:46.777Z,29.63
2023-02-06T08:25:46.605Z,25.00
2023-02-06T08:26:46.913Z,28.86
2023-02-06T08:27:46.692Z,26.58
2023-02-06T08:28:46.600Z,29.47
2023-02-06T08:29:46.719Z,27.38
2023-02-06T08:30:46.843Z,26.74
2023-02-06T08:31:46.845Z,28.92
2023-02-06T08:32:46.732Z,28.66
2023-02-06T08:33:46.504Z,28.89
2023-02-06T08:34:46.943Z,29.61
2023-02-06T08:35:46.698Z,30.39
2023-02-06T08:36:46.690Z,37.02
2023-02-06T08:37:46.556Z,39.96
2023-02-06T08:38:46.688Z,43.04
2023-02-06T08:39:47.296Z,46.09
2023-02-06T08:40:46.441Z,49.21
2023-02-06T08:41:46.483Z,59.18
2023-02-06T08:42:46.668Z,63.86
2023-02-06T08:43:46.409Z,66.69
2023-02-06T08:44:46.693Z,70.58
2023-02-06T08:45:47.154Z,74.69
2023-02-06T08:46:46.373Z,77.59
2023-02-06T08:47:46.805Z,82.22
2023-02-06T08:48:47.617Z,86.20
2023-02-06T08:49:49.644Z,86.20
2023-02-06T08:50:47.422Z,86.51
2023-02-06T08:51:46.377Z,86.68
2023-02-06T08:52:46.306Z,88.58
2023-02-06T08:53:46.549Z,87.55
2023-02-06T08:54:46.793Z,87.16
2023-02-06T08:55:46.291Z,89.35
2023-02-06T08:56:46.782Z,92.24
2023-02-06T08:57:46.278Z,93.18
2023-02-06T08:58:46.766Z,90.28
2023-02-06T08:59:46.277Z,91.51
2023-02-06T09:00:46.369Z,90.41
2023-02-06T09:01:46.356Z,93.23
2023-02-06T09:02:46.311Z,95.39
2023-02-06T09:03:46.275Z,99.38
2023-02-06T09:04:46.191Z,98.66
2023-02-06T09:05:46.293Z,103.43
2023-02-06T09:06:46.268Z,113.11
2023-02-06T09:07:46.168Z,120.05
2023-02-06T09:08:46.156Z,119.49
2023-02-06T09:09:46.152Z,120.56
2023-02-06T09:10:46.133Z,132.67
2023-02-06T09:11:46.274Z,150.06
2023-02-06T09:12:46.121Z,151.25
2023-02-06T09:13:48.291Z,153.10
2023-02-06T09:14:46.101Z,153.29
2023-02-06T09:15:46.089Z,153.70
2023-02-06T09:16:46.303Z,151.13
2023-02-06T09:17:46.108Z,150.50
2023-02-06T09:18:46.937Z,151.64
2023-02-06T09:19:46.071Z,146.12
2023-02-06T09:20:46.768Z,142.27
2023-02-06T09:21:46.045Z,138.16
2023-02-06T09:22:46.105Z,140.05
2023-02-06T09:23:46.270Z,138.11
2023-02-06T09:24:46.005Z,132.79
2023-02-06T09:25:45.992Z,127.26
2023-02-06T09:26:58.904Z,126.30
2023-02-06T09:27:45.995Z,126.72
2023-02-06T09:28:46.294Z,127.45
2023-02-06T09:29:45.963Z,129.59
2023-02-06T09:30:46.027Z,132.01
2023-02-06T09:31:46.394Z,121.67
2023-02-06T09:32:45.992Z,120.16
2023-02-06T09:33:45.964Z,109.00
2023-02-06T09:34:47.683Z,101.41
2023-02-06T09:35:45.914Z,101.72
2023-02-06T09:36:46.300Z,101.57
2023-02-06T09:37:45.893Z,104.04
2023-02-06T09:38:46.404Z,95.48
2023-02-06T09:39:45.861Z,72.82
2023-02-06T09:40:45.864Z,69.35
2023-02-06T09:41:45.862Z,59.75
2023-02-06T09:42:45.850Z,50.96
2023-02-06T09:43:45.829Z,44.64
2023-02-06T09:44:46.287Z,40.96
2023-02-06T09:45:46.803Z,34.23
2023-02-06T09:46:45.843Z,29.48
2023-02-06T09:47:47.489Z,25.07
2023-02-06T09:48:46.305Z,26.51
2023-02-06T09:49:45.779Z,18.03
2023-02-06T09:50:45.772Z,21.48
2023-02-06T09:51:45.757Z,15.24
2023-02-06T09:52:45.747Z,12.94
2023-02-06T09:53:45.785Z,18.37
2023-02-06T09:54:45.789Z,24.03
2023-02-06T09:55:45.721Z,32.13
2023-02-06T09:56:45.711Z,23.28
2023-02-06T09:57:45.698Z,34.80
2023-02-06T09:58:45.696Z,31.75
2023-02-06T09:59:45.778Z,33.35
2023-02-06T10:00:45.676Z,25.00
2023-02-06T10:01:45.702Z,27.57
2023-02-06T10:02:45.660Z,25.00
2023-02-06T10:03:45.915Z,33.07
2023-02-06T10:04:45.665Z,30.66
2023-02-06T10:05:45.628Z,39.30
2023-02-06T10:06:45.623Z,26.07
2023-02-06T10:07:45.614Z,29.09
2023-02-06T10:08:45.810Z,25.54
2023-02-06T10:09:45.785Z,37.70
2023-02-06T10:10:45.583Z,43.10
2023-02-06T10:11:45.573Z,28.68
2023-02-06T10:12:45.568Z,39.48
2023-02-06T10:13:45.556Z,25.08
2023-02-06T10:14:45.782Z,41.37
2023-02-06T10:15:45.808Z,38.42
2023-02-06T10:16:45.555Z,25.56
2023-02-06T10:17:48.989Z,49.20
2023-02-06T10:18:45.521Z,32.95
2023-02-06T10:19:45.788Z,16.36
2023-02-06T10:20:45.539Z,19.63
2023-02-06T10:21:45.517Z,19.44
2023-02-06T10:22:45.472Z,0.00
2023-02-06T10:23:47.450Z,25.55
2023-02-06T10:24:45.799Z,25.70
2023-02-06T10:25:45.446Z,23.84
2023-02-06T10:26:45.443Z,22.47
2023-02-06T10:27:45.455Z,0.00
2023-02-06T10:28:45.865Z,30.10
2023-02-06T10:29:45.422Z,34.50
2023-02-06T10:30:45.558Z,45.96
2023-02-06T10:31:45.492Z,53.26
2023-02-06T10:32:45.705Z,77.84
2023-02-06T10:33:45.973Z,89.91
2023-02-06T10:34:46.167Z,102.21
2023-02-06T10:35:45.362Z,115.98
2023-02-06T10:36:46.181Z,122.45
2023-02-06T10:37:45.343Z,125.46
2023-02-06T10:38:45.334Z,113.67
2023-02-06T10:39:45.809Z,118.57
2023-02-06T10:40:45.809Z,133.30
2023-02-06T10:41:48.539Z,136.42
2023-02-06T10:42:45.301Z,137.01
2023-02-06T10:43:45.289Z,139.05
2023-02-06T10:44:51.297Z,142.52
2023-02-06T10:45:45.288Z,137.44
2023-02-06T10:46:45.375Z,141.75
2023-02-06T10:47:45.262Z,148.64
2023-02-06T10:48:45.311Z,155.23
2023-02-06T10:49:45.237Z,167.92
2023-02-06T10:50:45.228Z,170.29
2023-02-06T10:51:45.322Z,170.02
2023-02-06T10:52:45.238Z,177.22
2023-02-06T10:53:45.200Z,160.40
2023-02-06T10:54:45.194Z,170.54
2023-02-06T10:55:46.365Z,173.94
2023-02-06T10:56:45.308Z,174.02
2023-02-06T10:57:45.174Z,175.63
2023-02-06T10:58:45.305Z,177.81
2023-02-06T10:59:46.092Z,179.85
2023-02-06T11:00:45.188Z,186.87
2023-02-06T11:01:45.214Z,186.29
2023-02-06T11:02:47.501Z,182.03
2023-02-06T11:03:45.308Z,182.49
2023-02-06T11:04:45.104Z,182.09
2023-02-06T11:05:45.118Z,178.08
2023-02-06T11:06:45.088Z,178.77
2023-02-06T11:07:45.098Z,180.50
2023-02-06T11:08:45.337Z,185.00
2023-02-06T11:09:45.069Z,176.49
2023-02-06T11:10:45.046Z,178.21
2023-02-06T11:11:47.952Z,172.70
2023-02-06T11:12:45.030Z,173.18
2023-02-06T11:13:45.376Z,174.58
2023-02-06T11:14:45.009Z,178.24
2023-02-06T11:15:45.006Z,179.58
2023-02-06T11:16:45.313Z,179.38
2023-02-06T11:17:45.236Z,175.43
2023-02-06T11:18:45.004Z,169.89
2023-02-06T11:19:44.965Z,168.76
2023-02-06T11:20:44.957Z,176.15
2023-02-06T11:21:45.317Z,181.56
2023-02-06T11:22:52.704Z,180.90
2023-02-06T11:23:44.930Z,181.25
2023-02-06T11:24:44.952Z,182.24
2023-02-06T11:25:44.914Z,181.42
2023-02-06T11:26:45.351Z,181.84
2023-02-06T11:27:45.016Z,183.56
2023-02-06T11:28:44.885Z,179.90
2023-02-06T11:29:44.876Z,182.25
2023-02-06T11:30:44.886Z,181.30
2023-02-06T11:31:44.921Z,182.39
2023-02-06T11:32:59.031Z,174.45
2023-02-06T11:33:44.858Z,174.92
2023-02-06T11:34:44.830Z,176.61
2023-02-06T11:35:44.821Z,178.55
2023-02-06T11:36:44.813Z,178.89
2023-02-06T11:37:44.806Z,170.71
2023-02-06T11:38:44.792Z,179.65
2023-02-06T11:39:44.788Z,176.65
2023-02-06T11:40:44.804Z,179.53
2023-02-06T11:41:44.767Z,179.62
2023-02-06T11:42:44.825Z,175.36
2023-02-06T11:43:45.660Z,176.95
2023-02-06T11:44:44.741Z,175.07
2023-02-06T11:45:44.773Z,177.15
2023-02-06T11:46:44.724Z,169.28
2023-02-06T11:47:44.714Z,172.61
2023-02-06T11:48:44.700Z,180.34
2023-02-06T11:49:44.694Z,179.40
2023-02-06T11:50:44.689Z,172.56
2023-02-06T11:51:44.675Z,174.53
2023-02-06T11:52:46.786Z,175.88
2023-02-06T11:53:44.961Z,176.35
2023-02-06T11:54:44.654Z,177.44
2023-02-06T11:55:44.640Z,167.70
2023-02-06T11:56:44.653Z,168.84
2023-02-06T11:57:44.832Z,173.46
2023-02-06T11:58:44.621Z,172.53
2023-02-06T11:59:44.610Z,158.00
2023-02-06T12:00:44.595Z,167.48
2023-02-06T12:01:44.586Z,170.63
2023-02-06T12:02:45.417Z,165.33
2023-02-06T12:03:44.668Z,166.41
2023-02-06T12:04:44.563Z,167.68
2023-02-06T12:05:44.554Z,174.94
2023-02-06T12:06:44.553Z,172.06
2023-02-06T12:07:44.831Z,172.54
2023-02-06T12:08:44.843Z,171.80
2023-02-06T12:09:44.519Z,164.74
2023-02-06T12:10:44.784Z,168.80
2023-02-06T12:11:44.496Z,164.98
2023-02-06T12:12:45.083Z,170.19
2023-02-06T12:13:44.834Z,166.43
2023-02-06T12:14:44.469Z,168.67
2023-02-06T12:15:47.483Z,169.66
2023-02-06T12:16:44.502Z,169.73
2023-02-06T12:17:44.841Z,167.23
2023-02-06T12:18:44.438Z,170.60
2023-02-06T12:19:44.434Z,177.25
2023-02-06T12:20:44.416Z,178.31
2023-02-06T12:21:44.858Z,176.89
2023-02-06T12:22:44.841Z,179.30
2023-02-06T12:23:44.385Z,186.49
2023-02-06T12:24:44.388Z,178.10
2023-02-06T12:25:44.375Z,185.88
2023-02-06T12:26:45.340Z,190.17
2023-02-06T12:27:44.880Z,195.21
2023-02-06T12:28:44.378Z,200.41
2023-02-06T12:29:44.351Z,199.69
2023-02-06T12:30:44.395Z,206.46
2023-02-06T12:31:44.665Z,214.85
2023-02-06T12:32:44.731Z,230.16
2023-02-06T12:33:44.662Z,236.01
2023-02-06T12:34:44.288Z,235.95
2023-02-06T12:35:44.627Z,236.40
2023-02-06T12:36:44.262Z,233.32
2023-02-06T12:37:44.260Z,224.44
2023-02-06T12:38:44.691Z,224.46
2023-02-06T12:39:44.520Z,228.18
2023-02-06T12:40:44.520Z,232.52
2023-02-06T12:41:44.253Z,233.10
2023-02-06T12:42:44.558Z,232.78
2023-02-06T12:43:44.393Z,232.06
2023-02-06T12:44:44.852Z,234.85
2023-02-06T12:45:44.505Z,233.70
2023-02-06T12:46:44.251Z,226.72
2023-02-06T12:47:44.643Z,226.26
2023-02-06T12:48:44.345Z,222.03
2023-02-06T12:49:44.623Z,217.11
2023-02-06T12:50:44.814Z,217.03
2023-02-06T12:51:44.535Z,222.76
2023-02-06T12:52:44.359Z,226.25
2023-02-06T12:53:44.718Z,216.15
2023-02-06T12:54:44.395Z,217.51
2023-02-06T12:55:44.204Z,219.60
2023-02-06T12:56:44.320Z,215.30
2023-02-06T12:57:44.072Z,215.20
2023-02-06T12:58:44.349Z,218.28
2023-02-06T12:59:57.224Z,222.25
2023-02-06T13:00:44.074Z,222.53
2023-02-06T13:01:44.052Z,222.70
2023-02-06T13:02:44.162Z,218.27
2023-02-06T13:03:44.348Z,217.82
2023-02-06T13:04:44.009Z,217.08
2023-02-06T13:05:44.000Z,211.47
2023-02-06T13:06:43.996Z,212.59
2023-02-06T13:07:49.374Z,213.77
2023-02-06T13:08:44.350Z,213.97
2023-02-06T13:09:43.970Z,209.85
2023-02-06T13:10:43.960Z,205.94
2023-02-06T13:11:43.950Z,196.48
2023-02-06T13:12:43.941Z,203.79
2023-02-06T13:13:44.357Z,196.36
2023-02-06T13:14:43.927Z,206.36
2023-02-06T13:15:43.939Z,193.11
2023-02-06T13:16:43.934Z,194.65
2023-02-06T13:17:43.898Z,191.95
2023-02-06T13:18:44.355Z,183.60
2023-02-06T13:19:44.037Z,186.29
2023-02-06T13:20:43.866Z,190.52
2023-02-06T13:21:43.864Z,190.52
2023-02-06T13:22:43.884Z,185.38
2023-02-06T13:23:43.860Z,189.22
2023-02-06T13:24:43.829Z,194.72
2023-02-06T13:25:43.858Z,184.04
2023-02-06T13:26:43.824Z,175.70
2023-02-06T13:27:43.807Z,190.61
2023-02-06T13:28:43.797Z,192.50
2023-02-06T13:29:43.795Z,190.68
2023-02-06T13:30:43.888Z,190.80
2023-02-06T13:31:43.870Z,191.36
2023-02-06T13:32:43.796Z,185.05
2023-02-06T13:33:43.755Z,190.27
2023-02-06T13:34:43.868Z,192.74
2023-02-06T13:35:43.740Z,185.75
2023-02-06T13:36:43.723Z,177.99
2023-02-06T13:37:43.714Z,162.14
2023-02-06T13:38:43.708Z,175.86
2023-02-06T13:39:43.697Z,171.34
2023-02-06T13:40:43.692Z,180.67
2023-02-06T13:41:43.680Z,188.91
2023-02-06T13:42:43.666Z,195.00
2023-02-06T13:43:43.889Z,170.80
2023-02-06T13:44:43.867Z,179.19
2023-02-06T13:45:43.686Z,182.76
2023-02-06T13:46:43.638Z,202.93
2023-02-06T13:47:43.625Z,215.75
2023-02-06T13:48:46.555Z,209.61
2023-02-06T13:49:43.604Z,209.75
2023-02-06T13:50:43.598Z,206.07
2023-02-06T13:51:43.872Z,210.43
2023-02-06T13:52:43.575Z,210.33
2023-02-06T13:53:43.872Z,201.16
2023-02-06T13:54:43.563Z,202.54
2023-02-06T13:55:43.555Z,206.57
2023-02-06T13:56:43.545Z,205.70
2023-02-06T13:57:43.870Z,203.46
2023-02-06T13:58:43.870Z,195.80
2023-02-06T13:59:43.926Z,195.15
2023-02-06T14:00:43.520Z,195.43
2023-02-06T14:01:43.549Z,196.48
2023-02-06T14:02:43.517Z,197.33
2023-02-06T14:03:43.481Z,200.83
2023-02-06T14:04:43.499Z,200.97
2023-02-06T14:05:43.870Z,197.38
2023-02-06T14:06:43.458Z,187.95
2023-02-06T14:07:43.441Z,165.53
2023-02-06T14:08:43.876Z,152.81
2023-02-06T14:09:44.087Z,154.22
2023-02-06T14:10:43.418Z,167.56
2023-02-06T14:11:43.409Z,189.96
2023-02-06T14:12:43.395Z,197.18
2023-02-06T14:13:43.880Z,188.90
2023-02-06T14:14:43.378Z,139.51
2023-02-06T14:15:43.417Z,131.39
2023-02-06T14:16:43.358Z,141.37
2023-02-06T14:17:43.354Z,145.29
2023-02-06T14:18:43.383Z,145.62
2023-02-06T14:19:43.370Z,134.35
2023-02-06T14:20:43.355Z,156.43
2023-02-06T14:21:43.309Z,164.90
2023-02-06T14:22:43.304Z,121.71
2023-02-06T14:23:45.399Z,100.24
2023-02-06T14:24:43.343Z,100.42
2023-02-06T14:25:43.291Z,101.35
2023-02-06T14:26:43.268Z,99.46
2023-02-06T14:27:43.261Z,103.48
2023-02-06T14:28:43.261Z,99.23
2023-02-06T14:29:43.238Z,126.91
2023-02-06T14:30:43.397Z,140.40
2023-02-06T14:31:45.862Z,150.73
2023-02-06T14:32:43.217Z,135.09
2023-02-06T14:33:43.204Z,135.39
2023-02-06T14:34:43.192Z,129.68
2023-02-06T14:35:43.378Z,140.02
2023-02-06T14:36:43.406Z,130.10
2023-02-06T14:37:43.161Z,117.77
2023-02-06T14:38:43.162Z,119.09
2023-02-06T14:39:43.156Z,134.92
2023-02-06T14:40:43.166Z,141.96
2023-02-06T14:41:43.127Z,117.56
2023-02-06T14:42:43.117Z,117.20
2023-02-06T14:43:43.402Z,113.91
2023-02-06T14:44:43.095Z,105.71
2023-02-06T14:45:44.919Z,107.41
2023-02-06T14:46:43.121Z,108.33
2023-02-06T14:47:43.072Z,110.02
2023-02-06T14:48:43.088Z,110.27
2023-02-06T14:49:43.053Z,119.13
2023-02-06T14:50:43.051Z,126.01
2023-02-06T14:51:43.039Z,117.73
2023-02-06T14:52:43.059Z,119.02
2023-02-06T14:53:43.030Z,118.76
2023-02-06T14:54:43.013Z,111.53
2023-02-06T14:55:43.008Z,116.13
2023-02-06T14:56:43.009Z,117.19
2023-02-06T14:57:43.005Z,113.28
2023-02-06T14:58:43.009Z,121.17
2023-02-06T14:59:42.965Z,131.31
2023-02-06T15:00:42.990Z,124.98
2023-02-06T15:01:42.962Z,129.41
2023-02-06T15:02:42.943Z,110.39
2023-02-06T15:03:43.032Z,128.10
2023-02-06T15:04:42.922Z,125.06
2023-02-06T15:05:42.915Z,122.95
2023-02-06T15:06:42.911Z,127.23
2023-02-06T15:07:42.895Z,132.07
2023-02-06T15:08:42.918Z,131.41
2023-02-06T15:09:42.881Z,145.80
2023-02-06T15:10:42.864Z,142.64
2023-02-06T15:11:42.862Z,121.99
2023-02-06T15:12:42.851Z,133.66
2023-02-06T15:13:42.836Z,143.77
2023-02-06T15:14:42.834Z,156.45
2023-02-06T15:15:42.995Z,154.41
2023-02-06T15:16:42.814Z,149.04
2023-02-06T15:17:42.838Z,154.30
2023-02-06T15:18:42.794Z,153.27
2023-02-06T15:19:42.798Z,152.80
2023-02-06T15:20:42.792Z,150.79
2023-02-06T15:21:42.780Z,146.50
2023-02-06T15:22:42.758Z,134.60
2023-02-06T15:23:42.914Z,150.89
2023-02-06T15:24:42.769Z,135.99
2023-02-06T15:25:42.732Z,128.00
2023-02-06T15:26:42.727Z,135.36
2023-02-06T15:27:42.718Z,143.30
2023-02-06T15:28:42.705Z,140.11
2023-02-06T15:29:42.695Z,137.91
2023-02-06T15:30:42.713Z,137.01
2023-02-06T15:31:42.976Z,133.77
2023-02-06T15:32:42.670Z,125.55
2023-02-06T15:33:42.660Z,135.26
2023-02-06T15:34:42.663Z,119.87
2023-02-06T15:35:42.645Z,105.81
2023-02-06T15:36:42.637Z,113.44
2023-02-06T15:37:42.640Z,114.35
2023-02-06T15:38:42.620Z,109.30
2023-02-06T15:39:42.613Z,114.36
2023-02-06T15:40:43.431Z,109.13
2023-02-06T15:41:42.592Z,111.32
2023-02-06T15:42:42.583Z,120.43
2023-02-06T15:43:42.578Z,122.36
2023-02-06T15:44:42.568Z,113.50
2023-02-06T15:45:42.576Z,125.42
2023-02-06T15:46:42.582Z,122.50
2023-02-06T15:47:42.543Z,107.94
2023-02-06T15:48:43.793Z,107.71
2023-02-06T15:49:42.533Z,116.68
2023-02-06T15:50:42.509Z,121.89
2023-02-06T15:51:42.524Z,118.15
2023-02-06T15:52:42.500Z,88.45
2023-02-06T15:53:42.497Z,91.64
2023-02-06T15:54:42.477Z,90.23
2023-02-06T15:55:42.464Z,98.16
2023-02-06T15:56:42.481Z,103.64
2023-02-06T15:57:42.447Z,97.13
2023-02-06T15:58:42.440Z,99.98
2023-02-06T15:59:42.428Z,94.13
2023-02-06T16:00:42.421Z,90.64
2023-02-06T16:01:42.432Z,94.99
2023-02-06T16:02:42.400Z,91.56
2023-02-06T16:03:42.398Z,80.63
2023-02-06T16:04:42.381Z,66.85
2023-02-06T16:05:42.377Z,69.59
2023-02-06T16:06:42.478Z,68.26
2023-02-06T16:07:42.382Z,76.89
2023-02-06T16:08:42.364Z,64.31
2023-02-06T16:09:42.338Z,73.85
2023-02-06T16:10:42.327Z,84.95
2023-02-06T16:11:42.354Z,97.67
2023-02-06T16:12:42.364Z,106.33
2023-02-06T16:13:42.300Z,106.30
2023-02-06T16:14:42.292Z,106.49
2023-02-06T16:15:42.285Z,109.84
2023-02-06T16:16:42.310Z,110.53
2023-02-06T16:17:42.300Z,112.07
2023-02-06T16:18:42.258Z,119.20
2023-02-06T16:19:42.254Z,122.24
2023-02-06T16:20:42.254Z,121.36
2023-02-06T16:21:42.237Z,123.25
2023-02-06T16:22:42.509Z,119.95
2023-02-06T16:23:42.215Z,122.88
2023-02-06T16:24:42.966Z,126.31
2023-02-06T16:25:42.202Z,124.33
2023-02-06T16:26:42.188Z,131.26
2023-02-06T16:27:42.425Z,129.35
2023-02-06T16:28:42.188Z,134.31
2023-02-06T16:29:42.157Z,131.64
2023-02-06T16:30:42.220Z,132.33
2023-02-06T16:31:42.390Z,136.88
2023-02-06T16:32:42.140Z,135.45
2023-02-06T16:33:42.114Z,139.43
2023-02-06T16:34:42.117Z,135.22
2023-02-06T16:35:42.100Z,138.08
2023-02-06T16:36:42.087Z,145.13
2023-02-06T16:37:42.096Z,147.07
2023-02-06T16:38:48.280Z,146.69
2023-02-06T16:39:42.060Z,147.11
2023-02-06T16:40:42.051Z,148.14
2023-02-06T16:41:42.042Z,148.52
2023-02-06T16:42:42.431Z,150.77
2023-02-06T16:43:42.024Z,153.57
2023-02-06T16:44:45.271Z,154.36
2023-02-06T16:45:42.002Z,154.69
2023-02-06T16:46:42.007Z,155.35
2023-02-06T16:47:41.984Z,157.08
2023-02-06T16:48:41.978Z,157.68
2023-02-06T16:49:41.969Z,162.95
2023-02-06T16:50:42.923Z,160.13
2023-02-06T16:51:41.957Z,160.60
2023-02-06T16:52:41.971Z,162.82
2023-02-06T16:53:41.930Z,162.71
2023-02-06T16:54:41.925Z,165.00
2023-02-06T16:55:41.916Z,164.62
2023-02-06T16:56:41.908Z,164.27
2023-02-06T16:57:41.896Z,163.41
2023-02-06T16:58:41.883Z,165.23
2023-02-06T16:59:42.428Z,165.26
2023-02-06T17:00:41.900Z,167.45
2023-02-06T17:01:41.960Z,168.74
2023-02-06T17:02:41.850Z,167.32
2023-02-06T17:03:41.844Z,169.28
2023-02-06T17:04:41.876Z,169.72
2023-02-06T17:05:41.825Z,170.48
2023-02-06T17:06:41.812Z,168.62
2023-02-06T17:07:41.830Z,170.74
2023-02-06T17:08:41.802Z,175.35
2023-02-06T17:09:41.787Z,174.26
2023-02-06T17:10:41.778Z,170.21
2023-02-06T17:11:41.766Z,166.92
2023-02-06T17:12:41.774Z,174.94
2023-02-06T17:13:41.752Z,172.45
2023-02-06T17:14:41.748Z,171.82
2023-02-06T17:15:41.781Z,172.46
2023-02-06T17:16:41.754Z,173.67
2023-02-06T17:17:41.725Z,175.20
2023-02-06T17:18:41.705Z,174.36
2023-02-06T17:19:41.717Z,175.12
2023-02-06T17:20:41.698Z,175.19
2023-02-06T17:21:41.680Z,174.41
2023-02-06T17:22:41.674Z,175.94
2023-02-06T17:23:41.660Z,176.15
2023-02-06T17:24:41.687Z,175.24
2023-02-06T17:25:41.640Z,175.42
2023-02-06T17:26:41.633Z,176.31
2023-02-06T17:27:41.633Z,175.92
2023-02-06T17:28:41.615Z,175.12
2023-02-06T17:29:41.609Z,176.98
2023-02-06T17:30:41.786Z,176.88
2023-02-06T17:31:41.610Z,177.26
2023-02-06T17:32:41.606Z,177.18
2023-02-06T17:33:41.580Z,176.52
2023-02-06T17:34:41.561Z,177.85
2023-02-06T17:35:41.556Z,178.53
2023-02-06T17:36:41.545Z,181.51
2023-02-06T17:37:41.551Z,180.67
2023-02-06T17:38:41.526Z,176.47
2023-02-06T17:39:41.518Z,178.06
2023-02-06T17:40:41.949Z,179.51
2023-02-06T17:41:41.500Z,178.90
2023-02-06T17:42:41.494Z,179.22
2023-02-06T17:43:41.479Z,178.34
2023-02-06T17:44:42.599Z,176.64
2023-02-06T17:45:41.468Z,179.74
2023-02-06T17:46:41.537Z,175.95
2023-02-06T17:47:41.458Z,179.03
2023-02-06T17:48:41.469Z,178.06
2023-02-06T17:49:41.429Z,180.10
2023-02-06T17:50:41.434Z,176.87
2023-02-06T17:51:41.408Z,178.76
2023-02-06T17:52:41.404Z,179.58
2023-02-06T17:53:41.421Z,180.88
2023-02-06T17:54:41.382Z,179.59
2023-02-06T17:55:41.372Z,179.77
2023-02-06T17:56:41.373Z,172.85
2023-02-06T17:57:41.354Z,178.19
2023-02-06T17:58:41.346Z,180.41
2023-02-06T17:59:41.368Z,179.73
2023-02-06T18:00:41.330Z,181.09
2023-02-06T18:01:41.361Z,182.63
2023-02-06T18:02:41.360Z,179.91
2023-02-06T18:03:41.306Z,181.37
2023-02-06T18:04:41.343Z,179.04
2023-02-06T18:05:41.290Z,179.31
2023-02-06T18:06:41.333Z,178.55
2023-02-06T18:07:41.269Z,179.70
2023-02-06T18:08:41.258Z,177.30
2023-02-06T18:09:42.284Z,181.07
2023-02-06T18:10:41.237Z,179.43
2023-02-06T18:11:41.255Z,178.64
2023-02-06T18:12:41.222Z,180.99
2023-02-06T18:13:41.211Z,178.18
2023-02-06T18:14:41.201Z,180.91
2023-02-06T18:15:41.287Z,179.30
2023-02-06T18:16:41.189Z,180.04
2023-02-06T18:17:41.182Z,182.69
2023-02-06T18:18:41.189Z,178.58
2023-02-06T18:19:41.158Z,179.49
2023-02-06T18:20:43.618Z,180.39
2023-02-06T18:21:41.139Z,184.01
2023-02-06T18:22:41.351Z,184.94
2023-02-06T18:23:41.176Z,183.29
2023-02-06T18:24:41.112Z,183.93
2023-02-06T18:25:43.178Z,181.38
2023-02-06T18:26:41.093Z,181.50
2023-02-06T18:27:41.084Z,181.45
2023-02-06T18:28:41.174Z,182.44
2023-02-06T18:29:49.341Z,179.74
2023-02-06T18:30:41.076Z,181.72
2023-02-06T18:31:41.065Z,183.16
2023-02-06T18:32:41.037Z,183.11
2023-02-06T18:33:41.022Z,183.69
2023-02-06T18:34:41.019Z,183.29
2023-02-06T18:35:41.005Z,183.49
2023-02-06T18:36:41.029Z,181.38
2023-02-06T18:37:40.992Z,182.87
2023-02-06T18:38:40.978Z,179.34
2023-02-06T18:39:40.969Z,180.78
2023-02-06T18:40:40.964Z,180.11
2023-02-06T18:41:40.949Z,182.56
2023-02-06T18:42:40.956Z,182.57
2023-02-06T18:43:40.930Z,179.41
2023-02-06T18:44:40.927Z,180.81
2023-02-06T18:45:40.913Z,182.80
2023-02-06T18:46:40.980Z,177.70
2023-02-06T18:47:40.893Z,183.16
2023-02-06T18:48:40.885Z,180.68
2023-02-06T18:49:40.886Z,179.81
2023-02-06T18:50:40.871Z,180.70
2023-02-06T18:51:40.858Z,180.69
2023-02-06T18:52:40.889Z,181.45
2023-02-06T18:53:40.848Z,178.97
2023-02-06T18:54:40.867Z,182.97
2023-02-06T18:55:40.819Z,178.10
2023-02-06T18:56:40.810Z,182.88
2023-02-06T18:57:40.807Z,178.68
2023-02-06T18:58:40.792Z,179.95